Time;durP1;ratioP1;P1;durP2;ratioP2;P2;SDS_P1;SDS_P2;PMS_P1;PMS_P2;Temp;Humidity;BMP_temperature;BMP_pressure;BME280_temperature;BME280_humidity;BME280_pressure;Samples;Min_cycle;Max_cycle;Signal;HPM_P1;HPM_P2
2022/03/06 00:01:40;;;;;;;9.80;8.07;;;-0.80;91.50;;;;;;5094835;28;20797;-47
2022/03/06 00:04:07;;;;;;;10.17;7.23;;;-0.80;91.20;;;;;;5094418;28;20453;-49
2022/03/06 00:06:35;;;;;;;9.93;8.70;;;-0.70;91.40;;;;;;5094297;28;20473;-47
2022/03/06 00:09:02;;;;;;;13.47;8.03;;;-0.80;90.50;;;;;;5094537;28;20491;-50
2022/03/06 00:11:29;;;;;;;12.40;8.03;;;-0.80;91.10;;;;;;5094634;28;20477;-47
2022/03/06 00:13:55;;;;;;;11.30;6.67;;;-0.70;91.20;;;;;;5094821;28;20478;-47
2022/03/06 00:16:22;;;;;;;11.30;7.67;;;-0.70;90.60;;;;;;5094947;28;20482;-48
2022/03/06 00:18:51;;;;;;;9.33;6.60;;;-0.50;90.40;;;;;;5094408;28;20966;-47
2022/03/06 00:21:18;;;;;;;13.20;7.60;;;-0.40;90.80;;;;;;5094668;28;20478;-47
2022/03/06 00:23:45;;;;;;;9.80;7.83;;;-0.50;90.70;;;;;;5094516;28;20475;-48
2022/03/06 00:26:11;;;;;;;11.57;9.13;;;-0.50;90.60;;;;;;5094498;28;20469;-47
2022/03/06 00:28:38;;;;;;;9.73;8.07;;;-0.40;90.50;;;;;;5094455;28;20494;-47
2022/03/06 00:31:05;;;;;;;9.83;7.90;;;-0.60;90.40;;;;;;5094107;28;20482;-49
2022/03/06 00:33:32;;;;;;;16.10;8.60;;;-0.80;90.00;;;;;;5094883;28;20449;-47
2022/03/06 00:36:01;;;;;;;12.20;8.10;;;-0.90;90.20;;;;;;5094456;28;20479;-50
2022/03/06 00:38:28;;;;;;;11.10;7.90;;;-1.10;90.40;;;;;;5094360;28;20497;-49
2022/03/06 00:40:55;;;;;;;9.77;7.07;;;-1.10;90.90;;;;;;5093372;28;20447;-48
2022/03/06 00:43:22;;;;;;;12.37;8.60;;;-1.30;91.00;;;;;;5094406;28;20461;-49
2022/03/06 00:45:49;;;;;;;12.57;8.20;;;-1.40;91.60;;;;;;5093818;28;20466;-47
2022/03/06 00:48:15;;;;;;;13.87;8.27;;;-1.50;91.20;;;;;;5094151;28;20505;-46
2022/03/06 00:50:42;;;;;;;8.97;8.07;;;-1.70;91.00;;;;;;5094627;28;20515;-48
2022/03/06 00:53:11;;;;;;;10.70;8.97;;;-1.70;91.30;;;;;;5093821;28;20488;-47
2022/03/06 00:55:38;;;;;;;9.60;7.07;;;-1.70;91.10;;;;;;5093340;28;20478;-47
2022/03/06 00:58:06;;;;;;;11.83;8.03;;;-1.70;91.50;;;;;;5093121;28;20495;-47
2022/03/06 01:00:35;;;;;;;11.40;7.17;;;-1.60;91.90;;;;;;5092986;28;20798;-49
2022/03/06 01:03:03;;;;;;;8.80;6.83;;;-1.60;91.60;;;;;;5093135;28;20463;-47
2022/03/06 01:05:30;;;;;;;12.97;8.57;;;-1.50;91.90;;;;;;5093640;28;20434;-47
2022/03/06 01:07:57;;;;;;;9.30;7.50;;;-1.30;92.10;;;;;;5093326;28;21019;-46
2022/03/06 01:10:26;;;;;;;9.87;7.47;;;-1.30;91.80;;;;;;5092869;28;20591;-47
2022/03/06 01:12:53;;;;;;;8.53;7.57;;;-1.10;91.80;;;;;;5093630;28;20469;-47
2022/03/06 01:15:21;;;;;;;10.57;7.30;;;-1.10;91.40;;;;;;5093592;28;20477;-50
2022/03/06 01:17:48;;;;;;;7.43;6.70;;;-1.20;90.90;;;;;;5092819;28;20500;-47
2022/03/06 01:20:17;;;;;;;12.20;7.57;;;-1.30;90.70;;;;;;5092863;28;20466;-47
2022/03/06 01:22:44;;;;;;;7.50;6.50;;;-1.40;90.70;;;;;;5093507;28;21007;-47
2022/03/06 01:25:11;;;;;;;12.00;8.70;;;-1.40;91.10;;;;;;5093762;28;20469;-47
2022/03/06 01:27:39;;;;;;;10.00;6.20;;;-1.30;91.30;;;;;;5093584;28;20894;-47
2022/03/06 01:30:10;;;;;;;11.37;7.70;;;-1.30;90.60;;;;;;5093182;28;20477;-47
2022/03/06 01:32:37;;;;;;;10.83;7.60;;;-1.20;90.80;;;;;;5093058;28;20554;-47
2022/03/06 01:35:06;;;;;;;8.40;7.00;;;-1.30;90.60;;;;;;5093163;28;20478;-47
2022/03/06 01:37:33;;;;;;;11.30;7.47;;;-1.10;91.10;;;;;;5093217;28;20488;-47
2022/03/06 01:40:00;;;;;;;11.20;7.23;;;-1.10;90.30;;;;;;5093033;28;20478;-47
2022/03/06 01:42:27;;;;;;;8.90;7.20;;;-1.00;90.60;;;;;;5093407;28;20438;-46
2022/03/06 01:44:56;;;;;;;10.97;7.43;;;-1.10;90.20;;;;;;5093016;28;20474;-47
2022/03/06 01:47:33;;;;;;;8.47;6.80;;;-1.30;89.10;;;;;;5093207;28;20504;-46
2022/03/06 01:50:00;;;;;;;7.53;6.70;;;-1.50;89.40;;;;;;5091920;28;20488;-47
2022/03/06 01:52:27;;;;;;;10.97;7.83;;;-1.60;90.00;;;;;;5093005;28;20604;-46
2022/03/06 01:54:54;;;;;;;11.97;8.13;;;-2.00;90.60;;;;;;5093332;28;20674;-47
2022/03/06 01:57:21;;;;;;;13.93;8.83;;;-2.20;91.30;;;;;;5095158;28;20500;-47
2022/03/06 01:59:48;;;;;;;10.47;8.60;;;-2.30;92.00;;;;;;5097031;28;20472;-46
2022/03/06 02:02:17;;;;;;;14.57;9.20;;;-2.20;92.20;;;;;;5096965;28;20924;-49
2022/03/06 02:04:44;;;;;;;9.13;7.67;;;-2.00;92.00;;;;;;5095372;28;20477;-47
2022/03/06 02:07:11;;;;;;;11.57;7.13;;;-1.90;91.50;;;;;;5094786;28;20501;-46
2022/03/06 02:09:38;;;;;;;10.17;7.97;;;-1.80;91.80;;;;;;5094412;28;20860;-48
2022/03/06 02:12:25;;;;;;;10.37;7.23;;;-1.50;92.10;;;;;;5095053;28;20564;-47
2022/03/06 02:14:52;;;;;;;11.13;7.20;;;-1.40;91.50;;;;;;5094907;28;20528;-49
2022/03/06 02:17:22;;;;;;;10.33;7.00;;;-1.30;91.50;;;;;;5094549;28;20503;-46
2022/03/06 02:19:54;;;;;;;9.23;7.20;;;-1.60;90.20;;;;;;5093917;28;20536;-47
2022/03/06 02:22:24;;;;;;;9.73;7.07;;;-1.60;90.40;;;;;;5094671;28;20478;-46
2022/03/06 02:24:51;;;;;;;8.90;7.10;;;-1.60;90.30;;;;;;5094463;28;20880;-47
2022/03/06 02:27:18;;;;;;;8.80;7.33;;;-1.60;90.70;;;;;;5094658;28;20535;-47
2022/03/06 02:29:45;;;;;;;8.83;7.13;;;-1.60;91.20;;;;;;5094052;28;20445;-47
2022/03/06 02:32:14;;;;;;;10.50;7.07;;;-1.50;91.20;;;;;;5094350;28;20565;-47
2022/03/06 02:34:43;;;;;;;9.70;6.67;;;-1.50;90.90;;;;;;5094586;28;20860;-47
2022/03/06 02:37:11;;;;;;;10.53;8.13;;;-1.50;90.80;;;;;;5094515;28;20500;-47
2022/03/06 02:39:39;;;;;;;8.50;6.80;;;-1.70;89.80;;;;;;5094009;28;20874;-53
2022/03/06 02:42:06;;;;;;;8.63;7.23;;;-1.80;90.30;;;;;;5094324;28;20479;-47
2022/03/06 02:44:33;;;;;;;9.30;6.53;;;-1.80;90.80;;;;;;5094260;28;20543;-47
2022/03/06 02:47:00;;;;;;;6.87;5.80;;;-1.80;91.80;;;;;;5094089;28;20472;-47
2022/03/06 02:49:27;;;;;;;10.63;7.50;;;-1.80;91.30;;;;;;5093742;28;20957;-47
2022/03/06 02:51:54;;;;;;;9.83;7.03;;;-1.80;91.00;;;;;;5093846;28;20513;-48
2022/03/06 02:54:21;;;;;;;11.97;7.10;;;-1.80;90.60;;;;;;5093788;28;20466;-47
2022/03/06 02:56:51;;;;;;;7.23;6.50;;;-1.90;90.60;;;;;;5093833;28;20478;-48
2022/03/06 02:59:18;;;;;;;9.57;6.47;;;-2.00;90.50;;;;;;5093390;28;20989;-47
2022/03/06 03:01:45;;;;;;;9.60;6.90;;;-2.10;90.50;;;;;;5094173;28;20488;-47
2022/03/06 03:04:13;;;;;;;9.10;6.57;;;-2.00;90.90;;;;;;5093924;28;20445;-47
2022/03/06 03:06:40;;;;;;;8.00;6.50;;;-2.10;90.60;;;;;;5093886;28;20494;-48
2022/03/06 03:09:07;;;;;;;11.67;7.43;;;-2.30;91.00;;;;;;5093021;28;20445;-47
2022/03/06 03:11:35;;;;;;;12.60;7.53;;;-2.40;91.40;;;;;;5093594;28;20562;-47
2022/03/06 03:14:04;;;;;;;9.23;6.60;;;-2.60;91.30;;;;;;5094105;28;20474;-47
2022/03/06 03:16:31;;;;;;;8.73;7.40;;;-3.00;91.40;;;;;;5093485;28;20480;-46
2022/03/06 03:18:58;;;;;;;7.67;6.87;;;-3.20;91.70;;;;;;5093496;28;20835;-49
2022/03/06 03:21:25;;;;;;;10.77;7.57;;;-3.10;92.00;;;;;;5093513;28;20849;-46
2022/03/06 03:23:52;;;;;;;8.37;6.90;;;-3.20;91.90;;;;;;5093553;28;20878;-47
2022/03/06 03:26:19;;;;;;;9.50;7.20;;;-3.10;92.00;;;;;;5093349;28;20437;-47
2022/03/06 03:28:45;;;;;;;8.73;6.50;;;-3.10;92.00;;;;;;5093334;28;20546;-48
2022/03/06 03:31:14;;;;;;;10.90;7.10;;;-2.90;92.70;;;;;;5092913;28;22408;-49
2022/03/06 03:33:41;;;;;;;9.87;6.60;;;-2.70;92.40;;;;;;5093157;28;20962;-47
2022/03/06 03:36:08;;;;;;;11.43;8.33;;;-2.40;92.90;;;;;;5093200;28;20532;-47
2022/03/06 03:38:35;;;;;;;10.00;6.80;;;-2.30;92.40;;;;;;5092758;28;20495;-50
2022/03/06 03:41:02;;;;;;;8.03;6.37;;;-2.20;91.80;;;;;;5092873;28;20988;-47
2022/03/06 03:43:29;;;;;;;11.40;6.50;;;-2.20;91.10;;;;;;5093165;28;20476;-47
2022/03/06 03:45:57;;;;;;;9.03;6.23;;;-2.40;91.00;;;;;;5092988;28;20480;-47
2022/03/06 03:48:27;;;;;;;8.47;6.30;;;-2.40;91.60;;;;;;5093056;28;20465;-47
2022/03/06 03:50:54;;;;;;;8.30;7.37;;;-2.50;91.10;;;;;;5092482;28;20452;-47
2022/03/06 03:53:21;;;;;;;10.73;6.60;;;-2.50;91.30;;;;;;5092717;28;20512;-47
2022/03/06 03:55:49;;;;;;;10.53;6.80;;;-2.60;91.40;;;;;;5092880;28;20481;-47
2022/03/06 03:58:16;;;;;;;8.77;6.27;;;-2.50;91.70;;;;;;5092889;28;20492;-47
2022/03/06 04:00:43;;;;;;;7.40;6.27;;;-2.50;91.80;;;;;;5092440;28;20528;-47
2022/03/06 04:03:10;;;;;;;11.67;7.47;;;-2.40;91.90;;;;;;5092695;28;20431;-46
2022/03/06 04:05:38;;;;;;;8.90;6.10;;;-2.40;91.60;;;;;;5092620;28;20480;-49
2022/03/06 04:08:05;;;;;;;11.40;8.10;;;-2.20;92.30;;;;;;5092331;28;21010;-47
2022/03/06 04:10:32;;;;;;;10.10;7.73;;;-2.20;91.90;;;;;;5092500;28;20466;-47
2022/03/06 04:12:59;;;;;;;8.93;8.07;;;-2.30;92.00;;;;;;5092603;28;21001;-48
2022/03/06 04:15:26;;;;;;;10.57;7.00;;;-2.40;92.10;;;;;;5092567;28;20537;-47
2022/03/06 04:17:53;;;;;;;8.73;7.43;;;-2.40;91.30;;;;;;5091950;28;20481;-47
2022/03/06 04:20:20;;;;;;;7.90;7.10;;;-2.30;90.80;;;;;;5092065;28;20480;-47
2022/03/06 04:22:49;;;;;;;7.37;6.13;;;-2.20;91.40;;;;;;5092252;28;20493;-47
2022/03/06 04:25:16;;;;;;;9.33;6.60;;;-2.20;90.70;;;;;;5092555;28;20474;-47
2022/03/06 04:27:43;;;;;;;11.53;7.33;;;-2.10;90.70;;;;;;5092053;28;20489;-46
2022/03/06 04:30:11;;;;;;;10.10;6.90;;;-2.30;89.90;;;;;;5091766;28;20528;-47
2022/03/06 04:32:38;;;;;;;7.20;5.97;;;-2.30;90.40;;;;;;5091960;28;20993;-47
2022/03/06 04:35:06;;;;;;;8.63;6.57;;;-2.50;89.40;;;;;;5092288;28;20417;-47
2022/03/06 04:37:34;;;;;;;10.63;6.17;;;-2.70;89.10;;;;;;5092285;28;20560;-47
2022/03/06 04:40:03;;;;;;;13.03;7.40;;;-2.70;89.60;;;;;;5092251;28;20478;-50
2022/03/06 04:42:30;;;;;;;8.97;6.10;;;-2.80;90.20;;;;;;5092105;28;20467;-47
2022/03/06 04:44:57;;;;;;;6.87;5.30;;;-2.70;90.80;;;;;;5091824;28;20475;-47
2022/03/06 04:47:24;;;;;;;9.20;6.90;;;-2.60;91.00;;;;;;5092138;28;20494;-46
2022/03/06 04:49:51;;;;;;;9.53;7.20;;;-2.60;91.00;;;;;;5091470;28;20981;-47
2022/03/06 04:52:18;;;;;;;10.03;7.70;;;-2.40;91.40;;;;;;5091823;28;20508;-48
2022/03/06 04:54:45;;;;;;;8.57;6.53;;;-2.40;91.30;;;;;;5091487;28;20485;-47
2022/03/06 04:57:14;;;;;;;11.23;7.13;;;-2.40;90.90;;;;;;5091638;28;20552;-46
2022/03/06 04:59:41;;;;;;;12.73;6.07;;;-2.40;90.70;;;;;;5091731;28;20445;-46
2022/03/06 05:02:08;;;;;;;6.97;6.13;;;-2.60;90.40;;;;;;5091819;28;20465;-47
2022/03/06 05:04:35;;;;;;;7.60;6.20;;;-2.70;90.50;;;;;;5091819;28;20508;-47
2022/03/06 05:07:02;;;;;;;11.23;6.87;;;-2.80;90.80;;;;;;5091563;28;20498;-46
2022/03/06 05:09:29;;;;;;;7.43;6.30;;;-2.80;91.00;;;;;;5091208;28;20476;-49
2022/03/06 05:11:55;;;;;;;10.20;6.50;;;-2.80;90.70;;;;;;5091696;28;20534;-47
2022/03/06 05:14:24;;;;;;;8.60;6.43;;;-2.90;90.80;;;;;;5091709;28;20444;-46
2022/03/06 05:16:51;;;;;;;10.80;6.90;;;-2.90;91.10;;;;;;5091541;28;20470;-46
2022/03/06 05:19:18;;;;;;;10.30;6.90;;;-2.80;91.40;;;;;;5091589;28;20473;-47
2022/03/06 05:21:45;;;;;;;9.47;7.03;;;-2.90;90.90;;;;;;5091601;28;20499;-46
2022/03/06 05:24:12;;;;;;;8.30;6.80;;;-3.00;90.90;;;;;;5091322;28;20509;-47
2022/03/06 05:26:39;;;;;;;9.10;6.87;;;-2.90;91.50;;;;;;5091628;28;20481;-47
2022/03/06 05:29:06;;;;;;;8.20;6.30;;;-2.70;91.60;;;;;;5091237;28;21040;-47
2022/03/06 05:31:34;;;;;;;10.33;6.33;;;-2.60;91.10;;;;;;5092102;28;20529;-46
2022/03/06 05:34:01;;;;;;;9.37;5.53;;;-2.80;90.00;;;;;;5095647;28;20973;-47
2022/03/06 05:36:28;;;;;;;7.50;5.70;;;-2.80;90.10;;;;;;5095420;28;20531;-49
2022/03/06 05:38:55;;;;;;;7.60;6.50;;;-2.80;89.60;;;;;;5095353;28;21056;-47
2022/03/06 05:41:22;;;;;;;9.13;6.57;;;-2.80;88.90;;;;;;5095281;28;20528;-47
2022/03/06 05:43:49;;;;;;;11.77;8.20;;;-2.90;90.10;;;;;;5095650;28;20490;-48
2022/03/06 05:46:16;;;;;;;10.60;8.77;;;-3.00;90.20;;;;;;5095179;28;20464;-47
2022/03/06 05:48:44;;;;;;;9.13;7.47;;;-3.10;90.30;;;;;;5095117;28;20522;-46
2022/03/06 05:51:11;;;;;;;12.00;8.10;;;-2.90;90.70;;;;;;5094933;28;20800;-47
2022/03/06 05:53:38;;;;;;;11.40;8.90;;;-2.80;91.10;;;;;;5095156;28;20475;-46
2022/03/06 05:56:05;;;;;;;10.87;8.73;;;-2.70;90.80;;;;;;5095283;28;20487;-46
2022/03/06 05:58:32;;;;;;;9.83;7.43;;;-2.70;90.50;;;;;;5094989;28;20473;-47
2022/03/06 06:01:01;;;;;;;7.87;6.70;;;-2.90;89.60;;;;;;5095058;28;20865;-47
2022/03/06 06:03:28;;;;;;;8.77;7.07;;;-3.10;89.90;;;;;;5094686;28;20917;-47
2022/03/06 06:05:56;;;;;;;7.90;5.77;;;-3.20;90.30;;;;;;5095228;28;20886;-47
2022/03/06 06:08:23;;;;;;;9.93;6.90;;;-3.10;91.10;;;;;;5094671;28;20503;-46
2022/03/06 06:10:50;;;;;;;8.50;6.23;;;-3.20;91.10;;;;;;5094598;28;20944;-46
2022/03/06 06:13:19;;;;;;;8.30;6.17;;;-3.10;91.30;;;;;;5094786;28;20551;-47
2022/03/06 06:15:46;;;;;;;8.00;6.47;;;-3.10;91.10;;;;;;5094604;28;20520;-47
2022/03/06 06:18:13;;;;;;;7.80;5.80;;;-3.10;90.60;;;;;;5094583;28;20515;-46
2022/03/06 06:20:40;;;;;;;7.63;6.93;;;-3.30;90.20;;;;;;5094703;28;20478;-47
2022/03/06 06:23:08;;;;;;;9.83;6.43;;;-3.40;90.80;;;;;;5094869;28;20472;-46
2022/03/06 06:25:35;;;;;;;9.23;6.37;;;-3.50;91.50;;;;;;5094675;28;20531;-49
2022/03/06 06:28:02;;;;;;;8.07;6.20;;;-3.60;92.00;;;;;;5094697;28;20500;-47
2022/03/06 06:30:29;;;;;;;7.83;7.10;;;-3.70;92.20;;;;;;5093976;28;20521;-47
2022/03/06 06:32:56;;;;;;;13.40;7.70;;;-3.70;92.10;;;;;;5094372;28;20514;-47
2022/03/06 06:35:23;;;;;;;16.13;9.93;;;-3.80;92.00;;;;;;5094477;28;20493;-47
2022/03/06 06:37:50;;;;;;;49.77;28.50;;;-3.50;92.60;;;;;;5094577;28;20499;-46
2022/03/06 06:40:18;;;;;;;23.70;16.10;;;-3.30;92.70;;;;;;5093791;28;20864;-47
2022/03/06 06:42:45;;;;;;;23.00;15.87;;;-3.20;91.90;;;;;;5093525;28;20469;-47
2022/03/06 06:45:12;;;;;;;21.80;15.60;;;-3.30;91.40;;;;;;5094465;28;20475;-46
2022/03/06 06:47:39;;;;;;;15.83;10.60;;;-3.20;91.70;;;;;;5094157;28;20492;-46
2022/03/06 06:50:08;;;;;;;15.57;10.40;;;-3.10;91.70;;;;;;5094956;28;20475;-47
2022/03/06 06:52:35;;;;;;;15.40;10.60;;;-2.90;91.80;;;;;;5094194;28;20552;-47
2022/03/06 06:55:02;;;;;;;9.10;7.43;;;-2.80;92.00;;;;;;5093652;28;20477;-46
2022/03/06 06:57:32;;;;;;;17.10;9.90;;;-2.80;91.00;;;;;;5094238;28;20492;-47
2022/03/06 07:00:00;;;;;;;22.90;16.10;;;-2.80;90.70;;;;;;5093653;28;20858;-47
2022/03/06 07:02:27;;;;;;;36.00;22.37;;;-2.80;90.90;;;;;;5094140;28;20443;-46
2022/03/06 07:04:53;;;;;;;50.50;30.80;;;-2.60;91.30;;;;;;5093673;28;20947;-46
2022/03/06 07:07:20;;;;;;;27.77;16.53;;;-2.60;91.70;;;;;;5093963;28;20505;-46
2022/03/06 07:09:47;;;;;;;12.00;9.70;;;-2.60;91.40;;;;;;5093683;28;20478;-46
2022/03/06 07:12:14;;;;;;;16.23;10.63;;;-2.60;91.60;;;;;;5093918;28;20479;-47
2022/03/06 07:14:42;;;;;;;16.87;9.30;;;-2.70;90.80;;;;;;5094005;28;20471;-47
2022/03/06 07:17:09;;;;;;;16.70;10.87;;;-2.80;90.40;;;;;;5093788;28;20540;-46
2022/03/06 07:19:36;;;;;;;20.33;10.63;;;-2.90;90.80;;;;;;5092899;28;20467;-46
2022/03/06 07:22:03;;;;;;;9.30;7.90;;;-2.90;91.10;;;;;;5093433;28;20480;-47
2022/03/06 07:24:30;;;;;;;9.07;7.00;;;-2.80;92.00;;;;;;5093411;28;20468;-46
2022/03/06 07:26:57;;;;;;;9.20;7.40;;;-2.50;92.10;;;;;;5093636;28;20444;-47
2022/03/06 07:29:24;;;;;;;7.80;7.10;;;-2.30;91.70;;;;;;5093216;28;20482;-46
2022/03/06 07:31:52;;;;;;;19.50;17.60;;;-2.40;91.00;;;;;;5093426;28;20489;-47
2022/03/06 07:34:20;;;;;;;15.43;12.90;;;-2.60;90.50;;;;;;5093341;28;21017;-47
2022/03/06 07:36:47;;;;;;;12.13;10.87;;;-2.80;90.70;;;;;;5093207;28;20527;-47
2022/03/06 07:39:15;;;;;;;15.80;9.57;;;-2.80;91.40;;;;;;5093105;28;20445;-46
2022/03/06 07:41:42;;;;;;;9.73;7.33;;;-2.70;91.70;;;;;;5093332;28;20529;-47
2022/03/06 07:44:09;;;;;;;13.67;9.03;;;-2.50;91.70;;;;;;5093174;28;20475;-47
2022/03/06 07:46:35;;;;;;;12.13;10.10;;;-2.40;92.10;;;;;;5092956;28;20471;-46
2022/03/06 07:49:04;;;;;;;11.00;8.43;;;-2.30;91.80;;;;;;5092568;28;20498;-48
2022/03/06 07:51:31;;;;;;;11.90;8.73;;;-2.20;91.30;;;;;;5092840;28;20483;-48
2022/03/06 07:53:57;;;;;;;9.57;6.90;;;-2.30;90.90;;;;;;5091902;28;20908;-46
2022/03/06 07:56:24;;;;;;;10.50;6.70;;;-2.50;90.10;;;;;;5093062;28;20531;-46
2022/03/06 07:58:51;;;;;;;8.90;6.50;;;-2.50;90.80;;;;;;5092844;28;21013;-47
2022/03/06 08:01:18;;;;;;;9.27;6.77;;;-2.40;91.10;;;;;;5092502;28;20468;-47
2022/03/06 08:03:45;;;;;;;7.90;6.37;;;-2.30;91.10;;;;;;5092866;28;20527;-46
2022/03/06 08:06:13;;;;;;;8.70;7.00;;;-2.40;90.60;;;;;;5092962;28;20469;-46
2022/03/06 08:08:41;;;;;;;9.23;7.00;;;-2.40;90.60;;;;;;5092658;28;20991;-46
2022/03/06 08:11:08;;;;;;;7.40;5.50;;;-2.50;90.20;;;;;;5092222;28;20443;-46
2022/03/06 08:13:35;;;;;;;9.90;7.13;;;-2.50;90.50;;;;;;5092443;28;20571;-47
2022/03/06 08:16:01;;;;;;;6.60;5.40;;;-2.50;90.80;;;;;;5092465;28;20472;-46
2022/03/06 08:18:28;;;;;;;8.70;6.70;;;-2.50;91.00;;;;;;5092240;28;20503;-47
2022/03/06 08:20:55;;;;;;;6.97;6.20;;;-2.50;91.30;;;;;;5092155;28;20455;-46
2022/03/06 08:23:23;;;;;;;7.93;6.23;;;-2.40;91.70;;;;;;5092614;28;20472;-46
2022/03/06 08:25:50;;;;;;;8.53;7.10;;;-2.40;91.80;;;;;;5092437;28;20475;-46
2022/03/06 08:28:17;;;;;;;12.40;7.93;;;-2.30;91.70;;;;;;5092149;28;20873;-47
2022/03/06 08:30:44;;;;;;;9.07;7.30;;;-2.30;91.70;;;;;;5092237;28;20521;-46
2022/03/06 08:33:12;;;;;;;12.23;8.47;;;-2.40;91.50;;;;;;5092543;28;20512;-48
2022/03/06 08:35:39;;;;;;;11.37;8.33;;;-2.40;91.50;;;;;;5092690;28;20476;-46
2022/03/06 08:38:06;;;;;;;14.40;10.17;;;-2.40;92.10;;;;;;5092952;28;20514;-46
2022/03/06 08:40:34;;;;;;;10.07;8.57;;;-2.40;93.30;;;;;;5092733;28;20947;-46
2022/03/06 08:43:01;;;;;;;17.60;10.97;;;-2.20;93.50;;;;;;5093406;28;20481;-46
2022/03/06 08:45:28;;;;;;;13.53;8.93;;;-2.20;92.50;;;;;;5093632;28;20470;-46
2022/03/06 08:47:55;;;;;;;9.73;7.40;;;-2.10;91.70;;;;;;5093461;28;20504;-47
2022/03/06 08:50:22;;;;;;;11.70;8.50;;;-2.00;91.60;;;;;;5093254;28;20886;-46
2022/03/06 08:52:49;;;;;;;9.70;8.70;;;-2.00;91.20;;;;;;5093324;28;20464;-47
2022/03/06 08:55:16;;;;;;;12.40;9.47;;;-2.10;91.10;;;;;;5093324;28;20469;-47
2022/03/06 08:57:44;;;;;;;13.07;9.53;;;-2.10;91.40;;;;;;5093225;28;20990;-46
2022/03/06 09:00:12;;;;;;;16.10;10.33;;;-2.10;92.00;;;;;;5092949;28;20896;-49
2022/03/06 09:02:39;;;;;;;12.87;9.10;;;-2.10;91.40;;;;;;5094063;28;20463;-46
2022/03/06 09:05:07;;;;;;;9.27;8.13;;;-1.80;90.50;;;;;;5092740;28;20471;-46
2022/03/06 09:07:34;;;;;;;13.47;10.03;;;-1.90;91.20;;;;;;5093210;28;20462;-46
2022/03/06 09:10:01;;;;;;;9.70;6.83;;;-1.80;91.00;;;;;;5093049;28;20486;-46
2022/03/06 09:12:27;;;;;;;10.93;7.33;;;-1.70;90.30;;;;;;5092654;28;20974;-46
2022/03/06 09:14:56;;;;;;;11.73;8.70;;;-1.70;89.80;;;;;;5092585;28;21014;-46
2022/03/06 09:17:23;;;;;;;8.73;6.77;;;-1.60;87.20;;;;;;5092668;28;20495;-46
2022/03/06 09:19:50;;;;;;;9.20;6.83;;;-1.40;89.30;;;;;;5092792;28;21071;-46
2022/03/06 09:22:17;;;;;;;11.30;8.30;;;-1.30;87.40;;;;;;5092583;28;20492;-46
2022/03/06 09:24:44;;;;;;;10.87;7.70;;;-1.10;87.70;;;;;;5092733;28;20474;-46
2022/03/06 09:27:11;;;;;;;10.80;6.83;;;-1.00;88.90;;;;;;5092847;28;20499;-47
2022/03/06 09:29:38;;;;;;;10.90;7.63;;;-0.70;87.30;;;;;;5092020;28;20478;-47
2022/03/06 09:32:06;;;;;;;14.60;8.03;;;-0.40;86.40;;;;;;5092132;28;20477;-48
2022/03/06 09:34:34;;;;;;;12.60;8.10;;;-0.30;85.10;;;;;;5092558;28;20514;-46
2022/03/06 09:37:01;;;;;;;14.30;7.87;;;-0.40;84.10;;;;;;5092857;28;20500;-46
2022/03/06 09:39:27;;;;;;;13.00;7.67;;;-0.30;86.30;;;;;;5092536;28;20481;-47
2022/03/06 09:41:56;;;;;;;11.37;8.90;;;-0.10;86.40;;;;;;5092737;28;20470;-47
2022/03/06 09:44:25;;;;;;;9.83;8.30;;;0.20;86.10;;;;;;5092833;28;20951;-47
2022/03/06 09:46:55;;;;;;;9.43;7.50;;;0.30;87.30;;;;;;5092992;28;20439;-46
2022/03/06 09:49:25;;;;;;;13.57;9.40;;;0.50;85.50;;;;;;5092392;28;20805;-47
2022/03/06 09:51:52;;;;;;;11.07;8.20;;;0.70;82.50;;;;;;5093132;28;20883;-46
2022/03/06 09:54:19;;;;;;;14.20;10.13;;;0.60;84.90;;;;;;5093119;28;20481;-46
2022/03/06 09:56:46;;;;;;;11.23;8.80;;;0.90;88.50;;;;;;5092993;28;20868;-47
2022/03/06 09:59:13;;;;;;;12.90;9.10;;;1.20;86.80;;;;;;5093570;28;20482;-46
2022/03/06 10:01:40;;;;;;;8.87;7.33;;;1.40;86.70;;;;;;5093214;28;20479;-46
2022/03/06 10:04:26;;;;;;;10.53;9.33;;;1.40;83.10;;;;;;5093529;28;20475;-47
2022/03/06 10:07:01;;;;;;;12.17;9.33;;;1.40;82.40;;;;;;5093238;28;20496;-47
2022/03/06 10:09:29;;;;;;;12.50;9.10;;;1.50;84.20;;;;;;5092745;28;20482;-46
2022/03/06 10:11:56;;;;;;;13.07;9.20;;;1.80;88.10;;;;;;5093014;28;20489;-47
2022/03/06 10:14:41;;;;;;;10.60;9.10;;;1.70;82.90;;;;;;5093153;28;20515;-46
2022/03/06 10:17:13;;;;;;;15.13;8.77;;;1.60;81.10;;;;;;5093004;28;20531;-46
2022/03/06 10:19:53;;;;;;;10.67;9.07;;;1.50;78.20;;;;;;5096441;28;20471;-47
2022/03/06 10:22:22;;;;;;;11.37;8.60;;;1.40;78.60;;;;;;5096975;28;20482;-46
2022/03/06 10:24:50;;;;;;;8.10;7.13;;;1.50;78.40;;;;;;5096562;28;20471;-46
2022/03/06 10:27:17;;;;;;;13.80;8.00;;;1.30;79.10;;;;;;5096213;28;20490;-45
2022/03/06 10:29:44;;;;;;;9.93;8.70;;;1.40;79.00;;;;;;5095899;28;20549;-48
2022/03/06 10:32:11;;;;;;;12.27;9.13;;;1.70;82.00;;;;;;5096845;28;20472;-45
2022/03/06 10:34:40;;;;;;;12.10;9.20;;;1.70;80.90;;;;;;5095916;28;20910;-45
2022/03/06 10:37:13;;;;;;;10.93;8.07;;;1.50;80.40;;;;;;5095706;28;21018;-45
2022/03/06 10:39:44;;;;;;;12.30;8.37;;;1.60;82.10;;;;;;5095494;28;20490;-45
2022/03/06 10:42:11;;;;;;;12.93;9.00;;;1.90;83.40;;;;;;5095837;28;20444;-45
2022/03/06 10:44:46;;;;;;;13.50;8.83;;;2.30;85.20;;;;;;5095364;28;20440;-45
2022/03/06 10:47:13;;;;;;;13.63;9.03;;;2.80;84.10;;;;;;5095550;28;20495;-45
2022/03/06 10:49:40;;;;;;;10.67;8.17;;;3.10;82.70;;;;;;5095254;28;20482;-45
2022/03/06 10:52:17;;;;;;;8.70;7.80;;;3.40;82.70;;;;;;5095653;28;20487;-45
2022/03/06 10:54:51;;;;;;;10.97;8.10;;;3.20;75.50;;;;;;5094729;28;20467;-45
2022/03/06 10:57:18;;;;;;;10.80;8.00;;;3.30;79.40;;;;;;5094656;28;20985;-45
2022/03/06 10:59:46;;;;;;;14.30;8.53;;;3.10;76.90;;;;;;5094075;28;20483;-45
2022/03/06 11:02:13;;;;;;;9.77;8.47;;;3.00;79.50;;;;;;5094237;28;20442;-46
2022/03/06 11:04:41;;;;;;;9.33;8.20;;;3.20;82.00;;;;;;5094122;28;20523;-45
2022/03/06 11:07:08;;;;;;;10.43;8.23;;;3.30;82.20;;;;;;5096786;28;20520;-45
2022/03/06 11:09:37;;;;;;;10.80;8.40;;;3.40;76.30;;;;;;5095779;28;20476;-46
2022/03/06 11:12:06;;;;;;;11.00;8.70;;;3.60;80.50;;;;;;5096691;28;20444;-45
2022/03/06 11:14:33;;;;;;;11.33;8.10;;;3.60;77.10;;;;;;5096179;28;21011;-45
2022/03/06 11:17:01;;;;;;;10.23;8.33;;;3.50;75.00;;;;;;5096192;28;20482;-46
2022/03/06 11:19:28;;;;;;;11.80;9.93;;;3.30;75.30;;;;;;5095192;28;20938;-46
2022/03/06 11:22:01;;;;;;;9.47;8.33;;;3.20;76.30;;;;;;5096266;28;20466;-46
2022/03/06 11:24:31;;;;;;;11.87;10.30;;;3.30;80.50;;;;;;5096673;28;20474;-46
2022/03/06 11:27:25;;;;;;;11.73;9.63;;;3.60;78.70;;;;;;5096405;28;20438;-43
2022/03/06 11:30:05;;;;;;;14.10;10.73;;;3.60;74.70;;;;;;5096500;28;20461;-44
2022/03/06 11:32:35;;;;;;;13.73;10.50;;;3.70;81.90;;;;;;5096234;28;20438;-43
2022/03/06 11:35:07;;;;;;;13.30;10.67;;;3.70;79.50;;;;;;5096427;28;20523;-43
2022/03/06 11:37:54;;;;;;;14.47;10.90;;;3.80;79.90;;;;;;5096084;28;20496;-43
2022/03/06 11:40:51;;;;;;;13.27;10.07;;;3.80;81.70;;;;;;5095723;28;20431;-43
2022/03/06 11:43:44;;;;;;;13.23;10.67;;;3.80;79.40;;;;;;5033428;28;20480;-43
2022/03/06 11:46:16;;;;;;;15.37;10.03;;;3.80;81.70;;;;;;5092477;28;20456;-44
2022/03/06 11:49:06;;;;;;;14.60;11.10;;;4.00;81.00;;;;;;5096286;28;20467;-44
2022/03/06 11:51:34;;;;;;;13.93;9.33;;;4.20;81.20;;;;;;5096571;28;20481;-44
2022/03/06 11:54:05;;;;;;;15.17;11.27;;;4.10;79.30;;;;;;5096166;28;20509;-44
2022/03/06 11:56:59;;;;;;;13.77;10.50;;;4.30;83.30;;;;;;5096597;28;20483;-45
2022/03/06 11:59:38;;;;;;;16.23;11.60;;;4.40;80.30;;;;;;5082489;28;20758;-44
2022/03/06 12:02:23;;;;;;;15.10;11.67;;;4.40;80.50;;;;;;5096894;28;20434;-45
2022/03/06 12:04:56;;;;;;;13.30;11.07;;;4.50;80.50;;;;;;5096103;28;20440;-44
2022/03/06 12:07:26;;;;;;;15.13;12.80;;;4.70;81.80;;;;;;5095919;28;20459;-44
2022/03/06 12:09:54;;;;;;;16.53;13.10;;;4.70;79.00;;;;;;5095920;28;20458;-44
2022/03/06 12:12:22;;;;;;;14.83;11.90;;;4.60;76.60;;;;;;5096340;28;20450;-44
2022/03/06 12:14:53;;;;;;;16.80;12.43;;;4.50;77.70;;;;;;5096157;28;20478;-44
2022/03/06 12:17:44;;;;;;;17.27;13.00;;;4.50;78.50;;;;;;5095677;28;20494;-44
2022/03/06 12:20:26;;;;;;;15.57;11.63;;;4.40;82.90;;;;;;5094383;28;20439;-44
2022/03/06 12:23:00;;;;;;;12.97;10.97;;;4.60;80.50;;;;;;5095703;28;20538;-44
2022/03/06 12:25:33;;;;;;;14.77;11.47;;;4.70;78.40;;;;;;5094646;28;20478;-44
2022/03/06 12:28:39;;;;;;;14.50;11.60;;;4.80;76.90;;;;;;5094764;28;20966;-44
2022/03/06 12:31:34;;;;;;;13.70;10.53;;;4.70;74.80;;;;;;5094924;28;20482;-44
2022/03/06 12:34:23;;;;;;;16.13;11.47;;;4.70;75.50;;;;;;5095069;28;20449;-44
2022/03/06 12:36:57;;;;;;;14.33;11.27;;;4.70;74.00;;;;;;5094762;28;20968;-44
2022/03/06 12:39:25;;;;;;;16.07;12.27;;;4.90;78.90;;;;;;5094121;28;20500;-44
2022/03/06 12:41:52;;;;;;;14.30;10.37;;;5.00;76.70;;;;;;5093739;28;20493;-44
2022/03/06 12:44:25;;;;;;;18.27;12.50;;;5.00;75.60;;;;;;5094069;28;20447;-47
2022/03/06 12:46:52;;;;;;;14.37;11.80;;;4.90;76.10;;;;;;5094468;28;20446;-45
2022/03/06 12:49:28;;;;;;;13.87;10.80;;;5.00;75.20;;;;;;5093914;28;20482;-45